createdAt,value
2017-07-19T11:08:18.073Z,1014.28
2017-07-19T11:09:39.614Z,1014.26
2017-07-19T11:11:01.473Z,1014.24
2017-07-19T11:12:23.315Z,1014.14
2017-07-19T11:13:45.739Z,1014.1
2017-07-19T11:15:07.627Z,1014.07
2017-07-19T11:16:29.885Z,1014.08
2017-07-19T11:17:52.215Z,1014.13
2017-07-19T11:19:14.827Z,1014.13
2017-07-19T11:20:37.448Z,1014.14
2017-07-19T11:21:59.687Z,1014.15
2017-07-19T11:23:21.541Z,1014.17
2017-07-19T11:24:43.043Z,1014.21
2017-07-19T11:26:04.585Z,1014.18
2017-07-19T11:27:26.756Z,1014.12
2017-07-19T11:28:48.925Z,1014.13
2017-07-19T11:30:11.086Z,1014.13
2017-07-19T11:31:33.675Z,1014.12
2017-07-19T11:32:55.883Z,1014.12
2017-07-19T11:34:18.372Z,1014.05
2017-07-19T11:35:40.828Z,1014.1
2017-07-19T11:37:02.672Z,1014.12
2017-07-19T11:38:24.882Z,1014.03
2017-07-19T11:39:46.602Z,1014.02
2017-07-19T11:41:09.073Z,1014.01
2017-07-19T11:42:31.564Z,1013.99
2017-07-19T11:43:53.261Z,1014.02
2017-07-19T11:45:15.216Z,1013.92
2017-07-19T11:46:37.330Z,1013.94
2017-07-19T11:47:59.182Z,1014.03
2017-07-19T11:49:21.355Z,1013.91
2017-07-19T11:50:43.256Z,1013.9
2017-07-19T11:52:05.396Z,1013.88
2017-07-19T11:53:27.624Z,1013.79
2017-07-19T11:54:49.685Z,1013.71
2017-07-19T11:56:11.256Z,1013.8
2017-07-19T11:57:33.746Z,1013.72
2017-07-19T11:58:56.280Z,1013.68
2017-07-19T12:00:18.810Z,1013.65
2017-07-19T12:01:40.978Z,1013.62
2017-07-19T12:03:03.112Z,1013.61
2017-07-19T12:04:24.964Z,1013.57
2017-07-19T12:05:47.565Z,1013.58
2017-07-19T12:07:10.036Z,1013.55
2017-07-19T12:08:32.868Z,1013.53
2017-07-19T12:09:55.345Z,1013.53
2017-07-19T12:11:17.285Z,1013.5
2017-07-19T12:12:39.554Z,1013.47
2017-07-19T12:14:01.375Z,1013.39
2017-07-19T12:15:23.964Z,1013.44
2017-07-19T12:16:46.215Z,1013.45
2017-07-19T12:18:08.764Z,1013.41
2017-07-19T12:19:31.167Z,1013.38
2017-07-19T12:20:53.630Z,1013.4
2017-07-19T12:22:16.090Z,1013.41
2017-07-19T12:23:37.935Z,1013.46
2017-07-19T12:24:59.568Z,1013.47
2017-07-19T12:26:22.145Z,1013.37
2017-07-19T12:27:44.422Z,1013.35
2017-07-19T12:29:06.307Z,1013.33
2017-07-19T12:30:29.103Z,1013.28
2017-07-19T12:31:51.585Z,1013.27
2017-07-19T12:33:13.459Z,1013.24
2017-07-19T12:34:35.645Z,1013.24
2017-07-19T12:35:58.115Z,1013.16
2017-07-19T12:37:19.945Z,1013.19
2017-07-19T12:38:42.466Z,1013.21
2017-07-19T12:40:04.626Z,1013.14
2017-07-19T12:41:26.754Z,1013.24
2017-07-19T12:42:48.624Z,1013.13
2017-07-19T12:44:11.096Z,1013.17
2017-07-19T12:45:33.365Z,1013.14
2017-07-19T12:46:55.875Z,1013.11
2017-07-19T12:48:18.443Z,1013.06
2017-07-19T12:49:40.644Z,1013.04
2017-07-19T12:51:02.912Z,1013.11
2017-07-19T12:52:24.480Z,1013.13
2017-07-19T12:53:47.069Z,1013.11
2017-07-19T12:55:09.575Z,1013.03
2017-07-19T12:56:31.444Z,1013.09
2017-07-19T12:57:53.613Z,1013.12
2017-07-19T12:59:16.095Z,1013.12
2017-07-19T13:00:38.420Z,1013.17
2017-07-19T13:02:00.315Z,1013.18
2017-07-19T13:03:22.835Z,1013.18
2017-07-19T13:04:45.315Z,1013.2
2017-07-19T13:06:07.797Z,1013.13
2017-07-19T13:07:30.349Z,1013.17
2017-07-19T13:08:52.887Z,1013
2017-07-19T13:10:15.536Z,1012.98
2017-07-19T13:11:38.144Z,1012.92
2017-07-19T13:13:00.006Z,1012.98
2017-07-19T13:14:22.423Z,1012.93
2017-07-19T13:15:44.285Z,1012.97
2017-07-19T13:17:06.119Z,1012.92
2017-07-19T13:18:28.069Z,1012.86
2017-07-19T13:19:50.936Z,1012.88
2017-07-19T13:21:13.538Z,1012.83
2017-07-19T13:22:35.448Z,1012.86
2017-07-19T13:23:57.670Z,1012.82
2017-07-19T13:25:20.445Z,1012.78
2017-07-19T13:26:41.976Z,1012.87
2017-07-19T13:28:04.168Z,1012.85
2017-07-19T13:29:26.367Z,1012.81
2017-07-19T13:30:49.152Z,1012.79
2017-07-19T13:32:11.327Z,1012.78
2017-07-19T13:33:33.606Z,1012.78
2017-07-19T13:34:56.105Z,1012.88
2017-07-19T13:36:18.218Z,1012.8
2017-07-19T13:37:40.092Z,1012.85
2017-07-19T13:39:02.594Z,1012.91
2017-07-19T13:40:24.460Z,1012.89
2017-07-19T13:41:46.585Z,1012.87
2017-07-19T13:43:08.475Z,1012.82
2017-07-19T13:44:31.016Z,1012.74
2017-07-19T13:45:53.196Z,1012.65
2017-07-19T13:47:15.736Z,1012.57
2017-07-19T13:48:37.597Z,1012.51
2017-07-19T13:49:59.775Z,1012.47
2017-07-19T13:51:22.272Z,1012.41
2017-07-19T13:52:44.787Z,1012.35
2017-07-19T13:54:06.350Z,1012.34
2017-07-19T13:55:28.868Z,1012.36
2017-07-19T13:56:51.418Z,1012.3
2017-07-19T13:58:13.910Z,1012.25
2017-07-19T13:59:36.395Z,1012.19
2017-07-19T14:00:58.358Z,1012.17
2017-07-19T14:02:20.256Z,1012.13
2017-07-19T14:03:43.004Z,1012.16
2017-07-19T14:05:05.285Z,1012.16
2017-07-19T14:06:27.466Z,1012.17
2017-07-19T14:07:50.075Z,1012.13
2017-07-19T14:09:11.883Z,1012.14
2017-07-19T14:10:34.051Z,1012.05
2017-07-19T14:11:55.916Z,1012.16
2017-07-19T14:13:18.165Z,1012.04
2017-07-19T14:14:40.369Z,1011.98
2017-07-19T14:16:02.605Z,1011.96
2017-07-19T14:17:24.467Z,1011.95
2017-07-19T14:18:46.656Z,1011.94
2017-07-19T14:20:08.863Z,1011.93
2017-07-19T14:21:30.776Z,1011.92
2017-07-19T14:22:52.614Z,1011.84
2017-07-19T14:24:14.475Z,1011.86
2017-07-19T14:25:37.125Z,1011.92
2017-07-19T14:26:59.289Z,1011.84
2017-07-19T14:28:21.462Z,1011.77
2017-07-19T14:29:43.436Z,1011.75
2017-07-19T14:31:05.666Z,1011.78
2017-07-19T14:32:28.167Z,1011.73
2017-07-19T14:33:50.036Z,1011.69
2017-07-19T14:35:11.945Z,1011.66
2017-07-19T14:36:34.399Z,1011.63
2017-07-19T14:37:56.620Z,1011.65
2017-07-19T14:39:20.452Z,1011.63
2017-07-19T14:40:42.332Z,1011.58
2017-07-19T14:42:05.265Z,1011.59
2017-07-19T14:43:27.127Z,1011.59
2017-07-19T14:44:49.406Z,1011.57
2017-07-19T14:46:11.887Z,1011.54
2017-07-19T14:47:34.082Z,1011.55
2017-07-19T14:48:56.709Z,1011.58
2017-07-19T14:50:18.576Z,1011.55
2017-07-19T14:51:41.126Z,1011.48
2017-07-19T14:53:03.647Z,1011.48
2017-07-19T14:54:25.816Z,1011.41
2017-07-19T14:55:47.996Z,1011.39
2017-07-19T14:57:10.492Z,1011.39
2017-07-19T14:58:32.739Z,1011.39
2017-07-19T14:59:55.007Z,1011.43
2017-07-19T15:01:17.231Z,1011.37
2017-07-19T15:02:39.396Z,1011.37
2017-07-19T15:04:01.878Z,1011.4
2017-07-19T15:05:24.045Z,1011.35
2017-07-19T15:06:46.230Z,1011.27
2017-07-19T15:08:08.567Z,1011.35
2017-07-19T15:09:31.134Z,1011.28
2017-07-19T15:10:52.767Z,1011.27
2017-07-19T15:12:14.944Z,1011.28
2017-07-19T15:13:36.486Z,1011.28
2017-07-19T15:14:58.324Z,1011.26
2017-07-19T15:16:20.177Z,1011.28
2017-07-19T15:17:42.754Z,1011.28
2017-07-19T15:19:04.590Z,1011.16
2017-07-19T15:20:26.757Z,1011.15
2017-07-19T15:21:48.933Z,1011.17
2017-07-19T15:23:11.133Z,1011.1
2017-07-19T15:24:33.076Z,1011.05
2017-07-19T15:25:54.916Z,1011.08
2017-07-19T15:27:17.171Z,1011.09
2017-07-19T15:28:39.026Z,1011.05
2017-07-19T15:30:01.587Z,1011.09
2017-07-19T15:31:24.016Z,1011.07
2017-07-19T15:32:45.557Z,1011.11
2017-07-19T15:34:07.419Z,1011.04
2017-07-19T15:35:29.253Z,1011
2017-07-19T15:36:51.713Z,1010.99
2017-07-19T15:38:13.255Z,1011.03
2017-07-19T15:39:35.099Z,1011.11
2017-07-19T15:40:57.653Z,1011.07
2017-07-19T15:42:19.928Z,1011.05
2017-07-19T15:43:42.086Z,1011.02
2017-07-19T15:45:04.566Z,1010.94
2017-07-19T15:46:26.737Z,1010.96
2017-07-19T15:47:49.178Z,1010.91
2017-07-19T15:49:11.691Z,1010.95
2017-07-19T15:50:33.537Z,1010.85
2017-07-19T15:51:56.048Z,1010.85
2017-07-19T15:53:17.997Z,1010.79
2017-07-19T15:54:40.496Z,1010.78
2017-07-19T15:56:02.749Z,1010.66
2017-07-19T15:57:24.614Z,1010.63
2017-07-19T15:58:47.486Z,1010.65
2017-07-19T16:00:09.978Z,1010.57
2017-07-19T16:01:31.823Z,1010.54
2017-07-19T16:02:54.299Z,1010.55
2017-07-19T16:04:16.785Z,1010.56
2017-07-19T16:05:38.945Z,1010.57
2017-07-19T16:07:01.104Z,1010.58
2017-07-19T16:08:22.638Z,1010.51
2017-07-19T16:09:45.375Z,1010.49
2017-07-19T16:11:07.882Z,1010.47
2017-07-19T16:12:30.479Z,1010.49
2017-07-19T16:13:53.171Z,1010.57
2017-07-19T16:15:15.672Z,1010.61
2017-07-19T16:16:38.246Z,1010.66
2017-07-19T16:18:00.416Z,1010.65
2017-07-19T16:19:22.667Z,1010.7
2017-07-19T16:20:45.434Z,1010.75
2017-07-19T16:22:07.726Z,1010.85
2017-07-19T16:23:30.235Z,1010.86
2017-07-19T16:24:52.417Z,1010.89
2017-07-19T16:26:14.838Z,1010.87
2017-07-19T16:27:37.310Z,1010.88
2017-07-19T16:28:59.157Z,1010.77
2017-07-19T16:30:20.786Z,1010.75
2017-07-19T16:31:43.507Z,1010.63
2017-07-19T16:33:05.972Z,1010.64
2017-07-19T16:34:28.194Z,1010.58
2017-07-19T16:35:49.715Z,1010.53
2017-07-19T16:37:12.211Z,1010.53
2017-07-19T16:38:34.875Z,1010.46
2017-07-19T16:39:56.466Z,1010.34
2017-07-19T16:41:17.994Z,1010.22
2017-07-19T16:42:40.428Z,1010.16
2017-07-19T16:44:02.686Z,1010.13
2017-07-19T16:45:25.194Z,1010.15
2017-07-19T16:46:47.462Z,1010.17
2017-07-19T16:48:09.885Z,1010.19
2017-07-19T16:49:32.390Z,1010.27
2017-07-19T16:50:54.232Z,1010.32
2017-07-19T16:52:16.717Z,1010.32
2017-07-19T16:53:39.277Z,1010.29
2017-07-19T16:55:01.886Z,1010.28
2017-07-19T16:56:24.379Z,1010.26
2017-07-19T16:57:46.616Z,1010.2
2017-07-19T16:59:08.408Z,1010.21
2017-07-19T17:00:30.649Z,1010.27
2017-07-19T17:01:52.517Z,1010.32
2017-07-19T17:03:14.707Z,1010.38
2017-07-19T17:04:36.667Z,1010.39
2017-07-19T17:05:58.896Z,1010.38
2017-07-19T17:07:21.106Z,1010.37
2017-07-19T17:08:43.303Z,1010.36
2017-07-19T17:10:05.823Z,1010.39
2017-07-19T17:11:28.008Z,1010.33
2017-07-19T17:12:50.187Z,1010.26
2017-07-19T17:14:12.104Z,1010.22
2017-07-19T17:15:34.737Z,1010.15
2017-07-19T17:16:57.074Z,1010.09
2017-07-19T17:18:19.637Z,1010.14
2017-07-19T17:19:42.297Z,1010.11
2017-07-19T17:21:04.417Z,1009.97
2017-07-19T17:22:27.044Z,1009.9
2017-07-19T17:23:49.539Z,1009.86
2017-07-19T17:25:12.041Z,1009.85
2017-07-19T17:26:34.896Z,1009.86
2017-07-19T17:27:56.638Z,1009.87
2017-07-19T17:29:18.821Z,1009.86
2017-07-19T17:30:40.686Z,1009.85
2017-07-19T17:32:03.168Z,1009.85
2017-07-19T17:33:25.382Z,1009.8
2017-07-19T17:34:47.348Z,1009.84
2017-07-19T17:36:09.233Z,1009.78
2017-07-19T17:37:31.115Z,1009.75
2017-07-19T17:38:53.435Z,1009.72
2017-07-19T17:40:15.726Z,1009.72
2017-07-19T17:41:38.233Z,1009.74
2017-07-19T17:43:00.796Z,1009.71
2017-07-19T17:44:23.289Z,1009.7
2017-07-19T17:45:45.468Z,1009.69
2017-07-19T17:47:07.963Z,1009.61
2017-07-19T17:48:30.625Z,1009.65
2017-07-19T17:49:53.964Z,1009.6
2017-07-19T17:51:17.098Z,1009.56
2017-07-19T17:52:40.017Z,1009.59
2017-07-19T17:54:03.679Z,1009.59
2017-07-19T17:55:26.495Z,1009.59
2017-07-19T17:56:49.014Z,1009.61
2017-07-19T17:58:11.566Z,1009.56
2017-07-19T17:59:34.562Z,1009.53
2017-07-19T18:00:57.363Z,1009.55
2017-07-19T18:02:20.057Z,1009.54
2017-07-19T18:03:43.090Z,1009.59
2017-07-19T18:05:06.085Z,1009.56
2017-07-19T18:06:29.327Z,1009.59
2017-07-19T18:07:52.104Z,1009.63
2017-07-19T18:09:15.160Z,1009.73
2017-07-19T18:10:38.402Z,1010.16
2017-07-19T18:12:01.039Z,1011.07
2017-07-19T18:13:23.982Z,1010.91
2017-07-19T18:14:46.489Z,1010.85
2017-07-19T18:16:09.105Z,1011.29
2017-07-19T18:17:32.270Z,1011.31
2017-07-19T18:18:54.983Z,1011.26
2017-07-19T18:20:17.332Z,1011.34
2017-07-19T18:21:39.836Z,1011.29
2017-07-19T18:23:02.554Z,1011.33
2017-07-19T18:24:24.584Z,1011.39
2017-07-19T18:25:46.776Z,1011.4
2017-07-19T18:27:09.598Z,1011.44
2017-07-19T18:28:31.835Z,1011.45
2017-07-19T18:29:54.039Z,1011.48
2017-07-19T18:31:16.565Z,1011.57
2017-07-19T18:32:39.364Z,1011.52
2017-07-19T18:34:01.561Z,1011.59
2017-07-19T18:35:23.834Z,1011.56
2017-07-19T18:36:46.004Z,1011.6
2017-07-19T18:38:08.749Z,1011.66
2017-07-19T18:39:31.043Z,1011.75
2017-07-19T18:40:53.524Z,1011.81
2017-07-19T18:42:14.774Z,1011.88
2017-07-19T18:43:37.552Z,1012
2017-07-19T18:45:00.065Z,1012.1
2017-07-19T18:46:22.261Z,1012.09
2017-07-19T18:47:44.119Z,1012.13
2017-07-19T18:49:06.280Z,1012.08
2017-07-19T18:50:28.807Z,1012.12
2017-07-19T18:51:50.345Z,1012.13
2017-07-19T18:53:12.531Z,1012.15
2017-07-19T18:54:35.052Z,1012.19
2017-07-19T18:55:57.235Z,1012.19
2017-07-19T18:57:19.774Z,1012.19
2017-07-19T18:58:42.001Z,1012.17
2017-07-19T19:00:04.984Z,1012.18
2017-07-19T19:01:27.501Z,1012.17
2017-07-19T19:02:49.798Z,1012.16
2017-07-19T19:04:12.398Z,1012.13
2017-07-19T19:05:34.557Z,1012.14
2017-07-19T19:06:57.189Z,1012.11
2017-07-19T19:08:19.185Z,1012.15
2017-07-19T19:09:41.693Z,1012.07
2017-07-19T19:11:04.486Z,1012.1
2017-07-19T19:12:26.701Z,1012.07
2017-07-19T19:13:48.894Z,1012.02
2017-07-19T19:15:10.812Z,1011.95
2017-07-19T19:16:32.983Z,1011.95
2017-07-19T19:17:55.175Z,1011.91
2017-07-19T19:19:17.536Z,1011.9
2017-07-19T19:20:39.754Z,1011.89
2017-07-19T19:22:01.994Z,1011.89
2017-07-19T19:23:23.954Z,1011.91
2017-07-19T19:24:46.219Z,1011.92
2017-07-19T19:26:08.409Z,1011.97
2017-07-19T19:27:31.163Z,1011.96
2017-07-19T19:28:53.386Z,1011.89
2017-07-19T19:30:15.647Z,1011.89
2017-07-19T19:31:38.186Z,1011.86
2017-07-19T19:33:00.365Z,1011.8
2017-07-19T19:34:22.867Z,1011.76
2017-07-19T19:35:45.384Z,1011.73
2017-07-19T19:37:07.258Z,1011.77
2017-07-19T19:38:29.807Z,1011.83
2017-07-19T19:39:52.300Z,1011.87
2017-07-19T19:41:14.838Z,1011.86
2017-07-19T19:42:37.206Z,1011.88
2017-07-19T19:43:59.396Z,1011.86
2017-07-19T19:45:21.288Z,1011.91
2017-07-19T19:46:43.561Z,1011.9
2017-07-19T19:48:05.782Z,1011.95
2017-07-19T19:49:28.333Z,1011.96
2017-07-19T19:50:50.251Z,1011.87
2017-07-19T19:52:12.523Z,1011.85
2017-07-19T19:53:35.048Z,1011.86
2017-07-19T19:54:57.283Z,1011.89
2017-07-19T19:56:19.802Z,1011.95
2017-07-19T19:57:42.450Z,1011.91
2017-07-19T19:59:04.705Z,1011.85
2017-07-19T20:00:27.198Z,1011.85
2017-07-19T20:01:49.697Z,1011.86
2017-07-19T20:03:11.932Z,1011.87
2017-07-19T20:04:33.776Z,1011.87
2017-07-19T20:05:55.902Z,1011.81
2017-07-19T20:07:17.800Z,1011.79
2017-07-19T20:08:40.052Z,1011.81
2017-07-19T20:10:02.237Z,1011.88
2017-07-19T20:11:25.048Z,1011.92
2017-07-19T20:12:47.215Z,1011.97
2017-07-19T20:14:09.709Z,1012.01
2017-07-19T20:15:32.005Z,1012.02
2017-07-19T20:16:54.806Z,1011.99
2017-07-19T20:18:17.005Z,1011.95
2017-07-19T20:19:39.249Z,1011.94
2017-07-19T20:21:01.799Z,1011.92
2017-07-19T20:22:24.606Z,1011.95
2017-07-19T20:23:46.777Z,1011.94
2017-07-19T20:25:09.292Z,1011.91
2017-07-19T20:26:31.556Z,1011.96
2017-07-19T20:27:54.460Z,1011.84
2017-07-19T20:29:16.992Z,1011.82
2017-07-19T20:30:38.859Z,1011.76
2017-07-19T20:32:01.346Z,1011.77
2017-07-19T20:33:23.312Z,1011.73
2017-07-19T20:34:45.488Z,1011.65
2017-07-19T20:36:07.652Z,1011.75
2017-07-19T20:37:29.840Z,1011.82
2017-07-19T20:38:52.275Z,1011.79
2017-07-19T20:40:14.902Z,1011.77
2017-07-19T20:41:37.392Z,1011.82
2017-07-19T20:42:59.896Z,1011.83
2017-07-19T20:44:22.418Z,1011.8
2017-07-19T20:45:44.619Z,1011.8
2017-07-19T20:47:06.476Z,1011.83
2017-07-19T20:48:28.743Z,1011.82
2017-07-19T20:49:51.178Z,1011.88
2017-07-19T20:51:13.834Z,1011.82
2017-07-19T20:52:36.029Z,1011.81
2017-07-19T20:53:58.222Z,1011.77
2017-07-19T20:55:20.811Z,1011.75
2017-07-19T20:56:42.987Z,1011.72
2017-07-19T20:58:05.158Z,1011.78
2017-07-19T20:59:27.325Z,1011.75
2017-07-19T21:00:49.489Z,1011.75
2017-07-19T21:02:11.980Z,1011.83
2017-07-19T21:03:34.290Z,1011.86
2017-07-19T21:04:56.472Z,1011.89
2017-07-19T21:06:18.921Z,1011.89
2017-07-19T21:07:40.799Z,1011.92
2017-07-19T21:09:02.975Z,1011.89
2017-07-19T21:10:25.574Z,1011.9
2017-07-19T21:11:48.309Z,1011.93
2017-07-19T21:13:10.805Z,1011.89
2017-07-19T21:14:32.968Z,1011.87
2017-07-19T21:15:54.500Z,1011.9
2017-07-19T21:17:16.299Z,1011.89
2017-07-19T21:18:38.149Z,1011.91
2017-07-19T21:20:00.656Z,1011.91
2017-07-19T21:21:23.234Z,1011.92
2017-07-19T21:22:45.349Z,1011.97
2017-07-19T21:24:07.984Z,1011.93
2017-07-19T21:25:29.828Z,1011.92
2017-07-19T21:26:51.698Z,1011.95
2017-07-19T21:28:13.780Z,1011.91
2017-07-19T21:29:35.919Z,1011.93
2017-07-19T21:30:58.079Z,1011.98
2017-07-19T21:32:20.226Z,1011.95
2017-07-19T21:33:42.341Z,1011.96
2017-07-19T21:35:04.621Z,1011.87
2017-07-19T21:36:26.811Z,1011.92
2017-07-19T21:37:48.765Z,1011.87
2017-07-19T21:39:11.440Z,1011.9
2017-07-19T21:40:33.917Z,1011.91
2017-07-19T21:41:55.812Z,1011.96
2017-07-19T21:43:18.293Z,1011.85
2017-07-19T21:44:40.812Z,1011.84
2017-07-19T21:46:03.337Z,1011.91
2017-07-19T21:47:24.929Z,1011.94
2017-07-19T21:48:47.094Z,1011.9
2017-07-19T21:50:09.580Z,1011.88
2017-07-19T21:51:31.520Z,1011.93
2017-07-19T21:52:54.010Z,1011.91
2017-07-19T21:54:15.912Z,1011.93
2017-07-19T21:55:38.638Z,1011.94
2017-07-19T21:57:00.513Z,1011.93
2017-07-19T21:58:22.679Z,1011.93
2017-07-19T21:59:45.280Z,1011.9
2017-07-19T22:01:07.805Z,1011.88
2017-07-19T22:02:30.027Z,1011.83
2017-07-19T22:03:52.483Z,1011.82
2017-07-19T22:05:14.966Z,1011.79
2017-07-19T22:06:37.768Z,1011.76
2017-07-19T22:07:59.977Z,1011.73
2017-07-19T22:09:21.536Z,1011.72
2017-07-19T22:10:43.379Z,1011.7
2017-07-19T22:12:05.518Z,1011.67
2017-07-19T22:13:27.038Z,1011.64
2017-07-19T22:14:49.577Z,1011.61
2017-07-19T22:16:11.751Z,1011.64
2017-07-19T22:17:34.168Z,1011.62
2017-07-19T22:18:55.993Z,1011.67
2017-07-19T22:20:17.939Z,1011.69
2017-07-19T22:21:39.803Z,1011.68
2017-07-19T22:23:01.979Z,1011.68
2017-07-19T22:24:24.181Z,1011.66
2017-07-19T22:25:46.060Z,1011.67
2017-07-19T22:27:08.259Z,1011.65
2017-07-19T22:28:30.371Z,1011.67
2017-07-19T22:29:51.918Z,1011.67
2017-07-19T22:31:13.534Z,1011.67
2017-07-19T22:32:35.055Z,1011.7
2017-07-19T22:33:56.854Z,1011.68
2017-07-19T22:35:18.708Z,1011.68
2017-07-19T22:36:40.269Z,1011.69
2017-07-19T22:38:02.445Z,1011.67
2017-07-19T22:39:24.928Z,1011.67
2017-07-19T22:40:46.776Z,1011.59
2017-07-19T22:42:09.278Z,1011.61
2017-07-19T22:43:31.441Z,1011.56
2017-07-19T22:44:53.037Z,1011.58
2017-07-19T22:46:15.255Z,1011.58
2017-07-19T22:47:37.244Z,1011.59
2017-07-19T22:48:59.119Z,1011.64
2017-07-19T22:50:21.727Z,1011.58
2017-07-19T22:51:43.590Z,1011.59
2017-07-19T22:53:06.078Z,1011.55
2017-07-19T22:54:27.747Z,1011.58
2017-07-19T22:55:49.641Z,1011.61
2017-07-19T22:57:11.190Z,1011.58
2017-07-19T22:58:33.463Z,1011.56
2017-07-19T22:59:55.383Z,1011.5
2017-07-19T23:01:17.840Z,1011.48
2017-07-19T23:02:39.698Z,1011.42
2017-07-19T23:04:02.169Z,1011.35
2017-07-19T23:05:24.331Z,1011.31
2017-07-19T23:06:47.077Z,1011.28
2017-07-19T23:08:09.020Z,1011.32
2017-07-19T23:09:31.012Z,1011.32
2017-07-19T23:10:53.210Z,1011.34
2017-07-19T23:12:14.966Z,1011.39
2017-07-19T23:13:37.265Z,1011.41
2017-07-19T23:14:59.747Z,1011.46
2017-07-19T23:16:21.952Z,1011.42
2017-07-19T23:17:44.653Z,1011.42
2017-07-19T23:19:06.490Z,1011.39
2017-07-19T23:20:28.661Z,1011.39
2017-07-19T23:21:50.557Z,1011.37
2017-07-19T23:23:13.336Z,1011.33
2017-07-19T23:24:35.496Z,1011.3
2017-07-19T23:25:58.038Z,1011.27
2017-07-19T23:27:20.659Z,1011.29
2017-07-19T23:28:42.647Z,1011.26
2017-07-19T23:30:04.781Z,1011.3
2017-07-19T23:31:25.997Z,1011.31
2017-07-19T23:32:47.878Z,1011.41
2017-07-19T23:34:10.647Z,1011.39
2017-07-19T23:35:32.167Z,1011.4
2017-07-19T23:36:53.997Z,1011.41
2017-07-19T23:38:15.834Z,1011.34
2017-07-19T23:39:38.086Z,1011.27
2017-07-19T23:40:59.906Z,1011.24
2017-07-19T23:42:21.864Z,1011.19
2017-07-19T23:43:43.389Z,1011.19
2017-07-19T23:45:05.156Z,1011.21
2017-07-19T23:46:27.038Z,1011.21
2017-07-19T23:47:49.505Z,1011.13
2017-07-19T23:49:11.793Z,1011.13
2017-07-19T23:50:33.910Z,1011.11
2017-07-19T23:51:55.436Z,1011.12
2017-07-19T23:53:17.677Z,1011.12
2017-07-19T23:54:39.537Z,1011.11
2017-07-19T23:56:02.105Z,1011.1
2017-07-19T23:57:24.577Z,1011.04
2017-07-19T23:58:46.744Z,1011.01
